createdAt,value
2019-03-04T00:01:43.996Z,16.47
2019-03-04T00:04:14.684Z,16.47
2019-03-04T00:06:44.991Z,15.67
2019-03-04T00:09:16.417Z,16.50
2019-03-04T00:11:50.727Z,17.17
2019-03-04T00:14:24.578Z,16.37
2019-03-04T00:16:54.890Z,16.50
2019-03-04T00:19:28.946Z,16.70
2019-03-04T00:21:57.726Z,16.17
2019-03-04T00:24:28.091Z,15.97
2019-03-04T00:26:57.286Z,14.23
2019-03-04T00:29:28.298Z,15.47
2019-03-04T00:31:58.351Z,15.53
2019-03-04T00:34:29.340Z,13.80
2019-03-04T00:36:57.951Z,14.63
2019-03-04T00:39:31.834Z,15.03
2019-03-04T00:42:05.526Z,15.03
2019-03-04T00:44:35.772Z,14.63
2019-03-04T00:47:05.482Z,13.87
2019-03-04T00:49:34.408Z,16.23
2019-03-04T00:52:04.953Z,14.50
2019-03-04T00:54:37.615Z,14.70
2019-03-04T00:57:06.554Z,14.10
2019-03-04T00:59:35.860Z,15.00
2019-03-04T01:02:04.485Z,14.40
2019-03-04T01:04:36.516Z,14.97
2019-03-04T01:07:06.371Z,13.97
2019-03-04T01:09:35.043Z,14.43
2019-03-04T01:12:18.078Z,14.73
2019-03-04T01:14:48.390Z,13.20
2019-03-04T01:17:18.716Z,14.43
2019-03-04T01:19:48.052Z,14.30
2019-03-04T01:22:16.860Z,14.07
2019-03-04T01:24:47.644Z,10.93
2019-03-04T01:27:16.384Z,13.43
2019-03-04T01:29:45.137Z,15.13
2019-03-04T01:32:13.907Z,13.63
2019-03-04T01:34:44.334Z,14.47
2019-03-04T01:37:15.257Z,13.60
2019-03-04T01:39:43.937Z,12.77
2019-03-04T01:42:14.473Z,14.67
2019-03-04T01:44:44.094Z,13.17
2019-03-04T01:47:12.834Z,13.47
2019-03-04T01:49:43.015Z,14.00
2019-03-04T01:52:14.229Z,13.23
2019-03-04T01:54:43.060Z,13.40
2019-03-04T01:57:13.106Z,13.70
2019-03-04T01:59:46.905Z,13.47
2019-03-04T02:02:17.090Z,12.67
2019-03-04T02:04:45.812Z,12.97
2019-03-04T02:07:14.596Z,13.63
2019-03-04T02:09:44.828Z,13.80
2019-03-04T02:12:13.705Z,13.33
2019-03-04T02:14:44.802Z,12.83
2019-03-04T02:17:14.493Z,12.53
2019-03-04T02:19:45.367Z,13.00
2019-03-04T02:22:14.223Z,12.57
2019-03-04T02:24:45.817Z,12.00
2019-03-04T02:27:18.808Z,11.97
2019-03-04T02:29:50.637Z,12.83
2019-03-04T02:32:20.538Z,12.47
2019-03-04T02:34:55.807Z,11.90
2019-03-04T02:37:22.567Z,11.50
2019-03-04T02:42:49.337Z,12.87
2019-03-04T02:45:24.122Z,11.27
2019-03-04T02:47:55.372Z,11.33
2019-03-04T02:50:27.781Z,10.47
2019-03-04T02:52:56.629Z,10.67
2019-03-04T02:55:34.353Z,10.17
2019-03-04T02:58:04.548Z,11.10
2019-03-04T03:00:33.342Z,9.93
2019-03-04T03:03:02.070Z,9.33
2019-03-04T03:05:31.246Z,10.20
2019-03-04T03:08:01.153Z,10.20
2019-03-04T03:10:31.272Z,9.20
2019-03-04T03:13:01.019Z,9.83
2019-03-04T03:15:31.117Z,9.20
2019-03-04T03:18:00.491Z,8.83
2019-03-04T03:20:30.707Z,8.70
2019-03-04T03:22:59.368Z,8.20
2019-03-04T03:25:28.326Z,9.30
2019-03-04T03:27:58.392Z,7.90
2019-03-04T03:30:28.701Z,8.87
2019-03-04T03:32:57.465Z,9.00
2019-03-04T03:35:27.380Z,8.47
2019-03-04T03:37:56.123Z,8.37
2019-03-04T03:40:25.094Z,7.33
2019-03-04T03:42:54.682Z,7.63
2019-03-04T03:45:23.433Z,7.40
2019-03-04T03:47:52.149Z,8.83
2019-03-04T03:50:21.323Z,7.80
2019-03-04T03:52:50.041Z,8.10
2019-03-04T03:55:20.664Z,7.23
2019-03-04T03:57:53.611Z,7.77
2019-03-04T04:00:24.915Z,8.17
2019-03-04T04:02:54.973Z,6.50
2019-03-04T04:05:30.007Z,7.60
2019-03-04T04:08:00.170Z,7.63
2019-03-04T04:10:30.088Z,7.67
2019-03-04T04:12:58.952Z,7.33
2019-03-04T04:15:27.648Z,6.57
2019-03-04T04:17:58.393Z,6.90
2019-03-04T04:20:28.429Z,7.43
2019-03-04T04:22:57.650Z,6.23
2019-03-04T04:25:26.797Z,6.40
2019-03-04T04:27:55.502Z,7.10
2019-03-04T04:30:27.229Z,5.87
2019-03-04T04:32:56.757Z,5.73
2019-03-04T04:35:25.678Z,6.90
2019-03-04T04:37:54.367Z,5.70
2019-03-04T04:40:23.272Z,6.03
2019-03-04T04:42:52.829Z,6.33
2019-03-04T04:45:21.606Z,6.17
2019-03-04T04:47:51.520Z,5.73
2019-03-04T04:50:26.977Z,6.20
2019-03-04T04:52:59.167Z,5.70
2019-03-04T04:55:28.485Z,6.10
2019-03-04T04:57:57.178Z,6.30
2019-03-04T05:00:26.806Z,5.90
2019-03-04T05:02:58.691Z,5.37
2019-03-04T05:05:30.143Z,6.17
2019-03-04T05:08:01.061Z,5.70
2019-03-04T05:10:30.347Z,6.47
2019-03-04T05:13:00.608Z,5.93
2019-03-04T05:15:31.566Z,5.27
2019-03-04T05:18:01.566Z,5.93
2019-03-04T05:20:35.713Z,6.03
2019-03-04T05:23:06.047Z,5.57
2019-03-04T05:25:36.205Z,5.50
2019-03-04T05:28:08.924Z,5.87
2019-03-04T05:30:40.641Z,5.33
2019-03-04T05:33:09.645Z,8.03
2019-03-04T05:35:40.292Z,5.03
2019-03-04T05:38:15.085Z,5.70
2019-03-04T05:40:50.040Z,5.97
2019-03-04T05:43:20.480Z,6.27
2019-03-04T05:45:50.191Z,5.80
2019-03-04T05:48:21.784Z,6.50
2019-03-04T05:51:09.506Z,5.33
2019-03-04T05:53:39.138Z,5.90
2019-03-04T05:56:08.503Z,6.53
2019-03-04T05:58:40.595Z,6.13
2019-03-04T06:01:25.001Z,5.83
2019-03-04T06:03:57.899Z,5.50
2019-03-04T06:06:46.901Z,6.03
2019-03-04T06:09:19.171Z,5.07
2019-03-04T06:11:50.578Z,5.60
2019-03-04T06:14:23.842Z,5.67
2019-03-04T06:16:52.729Z,6.13
2019-03-04T06:19:22.132Z,6.10
2019-03-04T06:21:54.512Z,5.90
2019-03-04T06:24:29.723Z,5.63
2019-03-04T06:26:59.847Z,6.37
2019-03-04T06:29:30.220Z,4.93
2019-03-04T06:32:03.504Z,5.00
2019-03-04T06:34:33.947Z,5.67
2019-03-04T06:37:08.243Z,5.80
2019-03-04T06:39:42.570Z,7.83
2019-03-04T06:42:12.467Z,5.13
2019-03-04T06:44:44.365Z,5.23
2019-03-04T06:47:15.196Z,4.80
2019-03-04T06:49:46.224Z,4.70
2019-03-04T06:52:18.835Z,5.07
2019-03-04T06:54:51.913Z,5.87
2019-03-04T06:57:28.550Z,5.53
2019-03-04T07:00:07.286Z,4.80
2019-03-04T07:02:39.386Z,6.30
2019-03-04T07:05:32.651Z,6.87
2019-03-04T07:08:02.831Z,5.30
2019-03-04T07:10:33.501Z,5.37
2019-03-04T07:13:04.798Z,5.13
2019-03-04T07:15:36.455Z,5.83
2019-03-04T07:18:06.455Z,5.40
2019-03-04T07:20:36.236Z,5.00
2019-03-04T07:23:09.008Z,6.53
2019-03-04T07:25:43.362Z,4.80
2019-03-04T07:28:15.942Z,5.53
2019-03-04T07:30:45.959Z,7.47
2019-03-04T07:33:17.391Z,5.77
2019-03-04T07:35:49.017Z,7.07
2019-03-04T07:38:23.403Z,7.57
2019-03-04T07:40:55.389Z,7.63
2019-03-04T07:43:26.996Z,5.33
2019-03-04T07:45:56.499Z,5.17
2019-03-04T07:48:30.777Z,5.17
2019-03-04T07:51:08.831Z,5.77
2019-03-04T07:53:46.076Z,5.93
2019-03-04T07:56:08.202Z,4.73
2019-03-04T07:58:38.843Z,5.57
2019-03-04T08:01:08.908Z,5.50
2019-03-04T08:03:38.128Z,5.83
2019-03-04T08:06:07.241Z,4.77
2019-03-04T08:08:39.564Z,5.17
2019-03-04T08:11:27.893Z,5.43
2019-03-04T08:14:02.541Z,6.20
2019-03-04T08:16:32.355Z,9.23
2019-03-04T08:19:02.508Z,4.70
2019-03-04T08:21:33.202Z,4.50
2019-03-04T08:24:01.957Z,5.83
2019-03-04T08:26:30.921Z,4.80
2019-03-04T08:28:59.747Z,5.13
2019-03-04T08:31:28.542Z,4.90
2019-03-04T08:33:57.414Z,4.80
2019-03-04T08:36:27.638Z,5.37
2019-03-04T08:38:57.604Z,5.20
2019-03-04T08:41:26.478Z,8.77
2019-03-04T08:43:55.345Z,9.07
2019-03-04T08:46:24.176Z,4.67
2019-03-04T08:48:55.481Z,4.43
2019-03-04T08:51:24.483Z,4.20
2019-03-04T08:53:55.724Z,4.53
2019-03-04T08:56:24.677Z,4.50
2019-03-04T08:58:54.877Z,4.23
2019-03-04T09:01:24.943Z,4.23
2019-03-04T09:03:55.811Z,4.00
2019-03-04T09:06:26.206Z,4.43
2019-03-04T09:08:55.041Z,4.60
2019-03-04T09:11:27.416Z,3.53
2019-03-04T09:13:56.726Z,5.23
2019-03-04T09:16:29.421Z,3.87
2019-03-04T09:18:58.183Z,3.97
2019-03-04T09:21:26.885Z,4.07
2019-03-04T09:23:55.588Z,4.10
2019-03-04T09:26:25.562Z,3.00
2019-03-04T09:28:57.544Z,3.97
2019-03-04T09:31:27.842Z,5.77
2019-03-04T09:33:58.016Z,3.60
2019-03-04T09:36:28.877Z,3.50
2019-03-04T09:38:57.711Z,4.13
2019-03-04T09:41:27.971Z,4.23
2019-03-04T09:43:58.804Z,3.77
2019-03-04T09:46:31.423Z,3.50
2019-03-04T09:49:02.464Z,7.20
2019-03-04T09:51:35.274Z,4.97
2019-03-04T09:54:05.287Z,4.53
2019-03-04T09:56:39.876Z,4.00
2019-03-04T09:59:11.133Z,3.77
2019-03-04T10:01:45.245Z,4.70
2019-03-04T10:04:24.892Z,5.20
2019-03-04T10:07:22.367Z,3.53
2019-03-04T10:10:05.923Z,3.80
2019-03-04T10:12:43.338Z,6.07
2019-03-04T10:15:30.243Z,4.77
2019-03-04T10:18:07.727Z,3.87
2019-03-04T10:20:58.835Z,4.33
2019-03-04T10:23:48.370Z,3.17
2019-03-04T10:26:26.987Z,3.77
2019-03-04T10:29:07.498Z,3.87
2019-03-04T10:32:04.720Z,3.20
2019-03-04T10:34:57.052Z,3.10
2019-03-04T10:37:51.519Z,4.10
2019-03-04T10:40:32.431Z,2.80
2019-03-04T10:43:38.772Z,3.30
2019-03-04T10:46:30.724Z,4.20
2019-03-04T10:49:02.278Z,2.87
2019-03-04T10:51:32.191Z,3.23
2019-03-04T10:54:01.678Z,2.90
2019-03-04T10:56:32.159Z,4.93
2019-03-04T10:59:02.116Z,3.20
2019-03-04T11:01:32.415Z,2.90
2019-03-04T11:04:01.302Z,3.33
2019-03-04T11:06:33.148Z,3.50
2019-03-04T11:09:03.715Z,3.80
2019-03-04T11:11:33.592Z,3.47
2019-03-04T11:14:05.646Z,10.03
2019-03-04T11:16:34.447Z,2.63
2019-03-04T11:19:03.932Z,3.47
2019-03-04T11:21:35.803Z,4.97
2019-03-04T11:24:07.061Z,3.67
2019-03-04T11:26:35.816Z,4.07
2019-03-04T11:29:05.672Z,3.13
2019-03-04T11:31:39.653Z,3.43
2019-03-04T11:34:08.527Z,3.97
2019-03-04T11:36:39.180Z,5.33
2019-03-04T11:39:23.829Z,4.33
2019-03-04T11:41:53.736Z,3.70
2019-03-04T11:44:25.810Z,2.93
2019-03-04T11:46:54.992Z,3.00
2019-03-04T11:49:26.765Z,3.20
2019-03-04T11:51:57.871Z,2.83
2019-03-04T11:54:26.921Z,2.63
2019-03-04T11:56:56.919Z,3.13
2019-03-04T11:59:28.069Z,3.67
2019-03-04T12:01:57.003Z,2.90
2019-03-04T12:04:26.919Z,2.63
2019-03-04T12:06:56.308Z,2.53
2019-03-04T12:09:25.306Z,3.80
2019-03-04T12:11:56.517Z,2.87
2019-03-04T12:14:26.844Z,2.90
2019-03-04T12:16:55.565Z,2.30
2019-03-04T12:19:24.527Z,2.67
2019-03-04T12:21:53.496Z,2.20
2019-03-04T12:24:23.431Z,2.80
2019-03-04T12:26:52.408Z,2.97
2019-03-04T12:29:21.143Z,2.63
2019-03-04T12:31:56.969Z,3.00
2019-03-04T12:34:25.857Z,3.30
2019-03-04T12:36:54.624Z,2.80
2019-03-04T12:39:24.135Z,4.00
2019-03-04T12:41:52.810Z,3.00
2019-03-04T12:52:42.587Z,2.13
2019-03-04T12:55:16.390Z,3.30
2019-03-04T12:57:49.452Z,2.67
2019-03-04T13:00:24.482Z,3.03
2019-03-04T13:02:57.806Z,3.00
2019-03-04T13:05:28.889Z,3.00
2019-03-04T13:08:02.868Z,2.90
2019-03-04T13:10:33.287Z,2.90
2019-03-04T13:13:04.814Z,2.63
2019-03-04T13:15:43.958Z,2.80
2019-03-04T13:18:12.965Z,2.77
2019-03-04T13:20:42.001Z,2.37
2019-03-04T13:23:13.287Z,2.17
2019-03-04T13:25:44.659Z,2.57
2019-03-04T13:28:26.639Z,2.40
2019-03-04T13:30:58.137Z,2.77
2019-03-04T13:33:26.929Z,2.47
2019-03-04T13:35:55.609Z,3.07
2019-03-04T13:38:30.270Z,2.57
2019-03-04T13:40:58.961Z,3.00
2019-03-04T13:43:35.603Z,2.50
2019-03-04T13:46:07.181Z,2.40
2019-03-04T13:48:42.363Z,2.70
2019-03-04T13:51:11.403Z,2.53
2019-03-04T13:53:41.289Z,2.63
2019-03-04T13:56:11.576Z,2.40
2019-03-04T13:58:42.851Z,2.33
2019-03-04T14:01:14.083Z,2.90
2019-03-04T14:03:46.543Z,2.67
2019-03-04T14:06:17.500Z,3.73
2019-03-04T14:08:46.290Z,3.23
2019-03-04T14:11:15.067Z,4.17
2019-03-04T14:13:44.020Z,3.47
2019-03-04T14:16:14.033Z,2.60
2019-03-04T14:18:50.504Z,3.90
2019-03-04T14:21:21.718Z,6.97
2019-03-04T14:23:50.763Z,2.97
2019-03-04T14:26:20.252Z,3.70
2019-03-04T14:28:52.866Z,4.20
2019-03-04T14:31:27.101Z,3.50
2019-03-04T14:33:57.275Z,3.27
2019-03-04T14:36:26.217Z,5.83
2019-03-04T14:38:57.922Z,3.13
2019-03-04T14:41:26.660Z,6.07
2019-03-04T14:43:56.539Z,3.43
2019-03-04T14:46:25.144Z,3.67
2019-03-04T14:48:55.387Z,3.63
2019-03-04T14:51:30.012Z,3.00
2019-03-04T14:53:58.567Z,2.50
2019-03-04T14:56:27.514Z,2.83
2019-03-04T14:59:10.955Z,3.37
2019-03-04T15:01:36.599Z,3.43
2019-03-04T15:04:05.362Z,5.83
2019-03-04T15:06:34.047Z,3.77
2019-03-04T15:09:07.971Z,2.70
2019-03-04T15:11:39.059Z,22.60
2019-03-04T15:14:10.286Z,5.50
2019-03-04T15:16:39.644Z,5.77
2019-03-04T15:19:14.911Z,3.10
2019-03-04T15:21:45.987Z,6.97
2019-03-04T15:24:22.705Z,3.17
2019-03-04T15:26:51.811Z,2.80
2019-03-04T15:29:20.656Z,2.83
2019-03-04T15:31:58.243Z,4.73
2019-03-04T15:34:28.799Z,3.30
2019-03-04T15:36:58.313Z,3.07
2019-03-04T15:39:29.838Z,3.90
2019-03-04T15:41:59.158Z,17.70
2019-03-04T15:44:31.863Z,7.40
2019-03-04T15:47:01.313Z,9.67
2019-03-04T15:49:30.681Z,7.27
2019-03-04T15:52:09.981Z,3.90
2019-03-04T15:54:40.899Z,11.77
2019-03-04T15:57:11.497Z,20.47
2019-03-04T15:59:44.925Z,6.60
2019-03-04T16:02:14.817Z,6.93
2019-03-04T16:04:47.832Z,3.00
2019-03-04T16:07:18.759Z,3.43
2019-03-04T16:09:50.482Z,3.77
2019-03-04T16:12:21.796Z,2.53
2019-03-04T16:14:50.512Z,3.20
2019-03-04T16:17:19.462Z,3.57
2019-03-04T16:19:48.415Z,3.47
2019-03-04T16:22:17.328Z,3.27
2019-03-04T16:24:49.497Z,3.83
2019-03-04T16:27:20.577Z,4.00
2019-03-04T16:30:04.610Z,4.37
2019-03-04T16:32:38.597Z,4.57
2019-03-04T16:35:08.664Z,4.23
2019-03-04T16:37:43.105Z,5.50
2019-03-04T16:40:26.212Z,5.67
2019-03-04T16:42:47.859Z,6.43
2019-03-04T16:45:24.407Z,7.97
2019-03-04T16:47:57.522Z,8.03
2019-03-04T16:50:36.120Z,11.67
2019-03-04T16:53:09.610Z,5.40
2019-03-04T16:55:43.240Z,5.30
2019-03-04T16:58:14.755Z,5.20
2019-03-04T17:00:45.149Z,4.97
2019-03-04T17:03:16.311Z,4.87
2019-03-04T17:05:46.362Z,4.50
2019-03-04T17:08:25.229Z,5.23
2019-03-04T17:10:57.005Z,5.30
2019-03-04T17:13:39.684Z,5.50
2019-03-04T17:16:10.331Z,5.17
2019-03-04T17:18:50.033Z,5.03
2019-03-04T17:21:25.487Z,5.33
2019-03-04T17:23:55.743Z,5.40
2019-03-04T17:26:29.132Z,6.17
2019-03-04T17:28:59.716Z,5.60
2019-03-04T17:31:38.419Z,4.93
2019-03-04T17:34:15.914Z,5.40
2019-03-04T17:36:48.228Z,5.47
2019-03-04T17:39:17.056Z,5.70
2019-03-04T17:41:48.338Z,5.23
2019-03-04T17:44:26.591Z,5.30
2019-03-04T17:46:55.276Z,5.30
2019-03-04T17:49:26.076Z,4.90
2019-03-04T17:51:55.733Z,5.03
2019-03-04T17:54:24.612Z,6.03
2019-03-04T17:56:57.575Z,5.60
2019-03-04T17:59:32.523Z,5.60
2019-03-04T18:02:07.084Z,5.50
2019-03-04T18:04:39.353Z,5.50
2019-03-04T18:07:10.443Z,5.10
2019-03-04T18:09:40.593Z,4.53
2019-03-04T18:12:11.450Z,5.07
2019-03-04T18:14:47.068Z,4.63
2019-03-04T18:17:16.161Z,4.63
2019-03-04T18:19:50.298Z,4.90
2019-03-04T18:22:24.798Z,5.27
2019-03-04T18:24:53.396Z,4.50
2019-03-04T18:27:26.156Z,4.67
2019-03-04T18:30:11.018Z,4.13
2019-03-04T18:33:17.427Z,5.77
2019-03-04T18:35:51.578Z,4.20
2019-03-04T18:38:44.022Z,4.00
2019-03-04T18:41:54.142Z,4.17
2019-03-04T18:44:56.571Z,4.20
2019-03-04T18:47:49.900Z,3.70
2019-03-04T18:50:23.025Z,3.97
2019-03-04T18:52:50.639Z,3.97
2019-03-04T18:55:20.723Z,3.57
2019-03-04T18:57:51.062Z,3.87
2019-03-04T19:00:45.296Z,4.10
2019-03-04T19:03:17.739Z,3.90
2019-03-04T19:05:52.780Z,3.70
2019-03-04T19:08:26.862Z,4.10
2019-03-04T19:10:57.674Z,3.40
2019-03-04T19:13:26.281Z,2.80
2019-03-04T19:15:57.054Z,2.40
2019-03-04T19:18:35.401Z,2.90
2019-03-04T19:21:11.591Z,2.20
2019-03-04T19:23:40.502Z,2.40
2019-03-04T19:26:14.924Z,2.43
2019-03-04T19:28:44.533Z,1.87
2019-03-04T19:31:21.477Z,2.30
2019-03-04T19:33:50.694Z,2.00
2019-03-04T19:36:21.915Z,2.30
2019-03-04T19:38:56.142Z,2.17
2019-03-04T19:41:29.185Z,2.20
2019-03-04T19:44:01.196Z,1.87
2019-03-04T19:46:40.074Z,2.30
2019-03-04T19:49:08.576Z,2.03
2019-03-04T19:51:38.755Z,2.33
2019-03-04T19:54:13.916Z,2.87
2019-03-04T19:56:47.997Z,1.97
2019-03-04T19:59:17.871Z,1.90
2019-03-04T20:01:49.370Z,2.03
2019-03-04T20:04:20.869Z,2.37
2019-03-04T20:06:51.226Z,1.80
2019-03-04T20:09:24.770Z,2.03
2019-03-04T20:11:57.065Z,1.87
2019-03-04T20:14:36.564Z,2.00
2019-03-04T20:17:08.424Z,2.10
2019-03-04T20:19:44.024Z,2.40
2019-03-04T20:22:11.510Z,2.53
2019-03-04T20:24:42.448Z,2.40
2019-03-04T20:27:16.316Z,2.00
2019-03-04T20:29:45.758Z,2.00
2019-03-04T20:32:16.423Z,2.57
2019-03-04T20:34:50.922Z,2.70
2019-03-04T20:37:23.862Z,2.50
2019-03-04T20:40:08.531Z,2.30
2019-03-04T20:42:40.949Z,2.37
2019-03-04T20:45:15.768Z,2.43
2019-03-04T20:47:51.111Z,2.17
2019-03-04T20:50:24.154Z,1.80
2019-03-04T20:52:58.070Z,2.27
2019-03-04T20:55:47.893Z,2.13
2019-03-04T20:58:22.074Z,2.17
2019-03-04T21:00:55.588Z,2.03
2019-03-04T21:06:16.031Z,1.93
2019-03-04T21:08:48.062Z,1.77
2019-03-04T21:11:19.726Z,1.93
2019-03-04T21:13:53.184Z,2.10
2019-03-04T21:16:26.053Z,1.73
2019-03-04T21:19:08.063Z,1.73
2019-03-04T21:21:41.113Z,1.87
2019-03-04T21:24:11.129Z,1.77
2019-03-04T21:26:43.249Z,2.17
2019-03-04T21:29:30.174Z,1.60
2019-03-04T21:31:58.108Z,1.90
2019-03-04T21:34:57.320Z,2.03
2019-03-04T21:37:28.962Z,2.03
2019-03-04T21:40:01.812Z,1.70
2019-03-04T21:42:37.460Z,1.90
2019-03-04T21:45:38.853Z,1.90
2019-03-04T21:48:16.451Z,1.47
2019-03-04T21:51:02.619Z,1.70
2019-03-04T21:53:41.164Z,1.73
2019-03-04T21:56:17.572Z,2.07
2019-03-04T21:58:46.362Z,2.37
2019-03-04T22:01:23.020Z,2.47
2019-03-04T22:03:54.748Z,2.60
2019-03-04T22:06:26.866Z,2.37
2019-03-04T22:08:57.839Z,2.37
2019-03-04T22:11:30.983Z,2.37
2019-03-04T22:13:59.796Z,2.47
2019-03-04T22:16:33.461Z,2.30
2019-03-04T22:19:02.893Z,2.20
2019-03-04T22:21:34.843Z,1.80
2019-03-04T22:24:04.508Z,1.83
2019-03-04T22:26:34.365Z,2.10
2019-03-04T22:29:03.139Z,1.97
2019-03-04T22:31:31.877Z,2.40
2019-03-04T22:34:03.213Z,2.50
2019-03-04T22:36:35.380Z,2.60
2019-03-04T22:39:07.413Z,1.90
2019-03-04T22:41:39.081Z,2.27
2019-03-04T22:44:08.400Z,2.30
2019-03-04T22:46:40.221Z,2.30
2019-03-04T22:49:12.030Z,2.27
2019-03-04T22:51:41.300Z,2.33
2019-03-04T22:54:09.955Z,2.00
2019-03-04T22:56:43.720Z,2.33
2019-03-04T22:59:14.267Z,1.90
2019-03-04T23:01:47.185Z,1.60
2019-03-04T23:04:18.789Z,2.30
2019-03-04T23:06:54.432Z,1.97
2019-03-04T23:09:27.635Z,2.27
2019-03-04T23:12:18.032Z,2.03
2019-03-04T23:14:49.160Z,1.97
2019-03-04T23:17:20.360Z,2.60
2019-03-04T23:19:49.253Z,2.60
2019-03-04T23:22:19.179Z,2.77
2019-03-04T23:24:50.615Z,2.60
2019-03-04T23:27:19.367Z,2.60
2019-03-04T23:29:51.625Z,3.40
2019-03-04T23:32:23.024Z,3.83
2019-03-04T23:34:51.806Z,3.03
2019-03-04T23:37:23.999Z,2.13
2019-03-04T23:39:54.166Z,2.23
2019-03-04T23:42:27.184Z,2.23
2019-03-04T23:44:56.717Z,2.30
2019-03-04T23:47:26.850Z,1.80
2019-03-04T23:50:17.587Z,1.23
2019-03-04T23:52:46.484Z,1.30
2019-03-04T23:55:17.931Z,1.10
2019-03-04T23:57:48.886Z,1.10
